createdAt,value
2023-08-15T00:00:24.620Z,17.94
2023-08-15T00:02:51.642Z,17.95
2023-08-15T00:05:18.613Z,17.97
2023-08-15T00:08:03.810Z,17.93
2023-08-15T00:10:30.696Z,17.92
2023-08-15T00:12:58.548Z,17.90
2023-08-15T00:15:25.691Z,17.97
2023-08-15T00:17:52.538Z,17.97
2023-08-15T00:20:19.549Z,17.89
2023-08-15T00:22:46.401Z,17.91
2023-08-15T00:25:13.407Z,17.86
2023-08-15T00:27:40.536Z,17.86
2023-08-15T00:30:08.054Z,17.91
2023-08-15T00:32:37.203Z,17.81
2023-08-15T00:35:05.283Z,17.84
2023-08-15T00:37:35.442Z,17.63
2023-08-15T00:40:02.509Z,17.54
2023-08-15T00:42:30.191Z,17.47
2023-08-15T00:44:58.816Z,17.41
2023-08-15T00:47:26.732Z,17.47
2023-08-15T00:49:55.069Z,17.47
2023-08-15T00:52:22.068Z,17.52
2023-08-15T00:54:51.161Z,17.51
2023-08-15T00:57:18.996Z,17.48
2023-08-15T00:59:46.568Z,17.40
2023-08-15T01:02:13.784Z,17.44
2023-08-15T01:04:42.890Z,17.38
2023-08-15T01:07:10.907Z,17.38
2023-08-15T01:09:38.475Z,17.34
2023-08-15T01:12:43.645Z,17.32
2023-08-15T01:15:16.787Z,17.34
2023-08-15T01:18:02.723Z,17.32
2023-08-15T01:20:34.302Z,17.34
2023-08-15T01:23:03.317Z,17.35
2023-08-15T01:25:33.367Z,17.38
2023-08-15T01:28:01.204Z,17.32
2023-08-15T01:30:28.700Z,17.28
2023-08-15T01:33:35.617Z,17.24
2023-08-15T01:36:17.626Z,17.17
2023-08-15T01:38:49.215Z,17.11
2023-08-15T01:41:20.588Z,17.07
2023-08-15T01:43:48.990Z,17.04
2023-08-15T01:46:16.155Z,17.03
2023-08-15T01:48:43.747Z,17.02
2023-08-15T01:51:11.816Z,17.00
2023-08-15T01:53:39.772Z,16.96
2023-08-15T01:56:07.233Z,17.00
2023-08-15T01:58:34.232Z,17.02
2023-08-15T02:01:04.038Z,16.99
2023-08-15T02:03:31.655Z,16.99
2023-08-15T02:05:58.630Z,16.97
2023-08-15T02:08:25.697Z,16.93
2023-08-15T02:10:53.439Z,16.96
2023-08-15T02:13:20.714Z,16.98
2023-08-15T02:15:47.704Z,16.90
2023-08-15T02:18:14.754Z,16.86
2023-08-15T02:20:41.625Z,16.86
2023-08-15T02:23:08.897Z,16.86
2023-08-15T02:25:36.093Z,16.85
2023-08-15T02:28:03.163Z,16.82
2023-08-15T02:30:30.982Z,16.80
2023-08-15T02:32:57.935Z,16.74
2023-08-15T02:35:24.909Z,16.74
2023-08-15T02:37:52.060Z,16.80
2023-08-15T02:40:18.928Z,16.82
2023-08-15T02:42:45.880Z,16.90
2023-08-15T02:45:12.680Z,16.86
2023-08-15T02:47:39.642Z,16.84
2023-08-15T02:50:07.775Z,16.82
2023-08-15T02:52:34.976Z,16.86
2023-08-15T02:55:01.789Z,16.88
2023-08-15T02:57:28.914Z,16.89
2023-08-15T02:59:55.958Z,16.86
2023-08-15T03:02:23.734Z,16.89
2023-08-15T03:04:50.679Z,16.89
2023-08-15T03:07:17.599Z,16.92
2023-08-15T03:09:44.345Z,17.02
2023-08-15T03:12:11.339Z,17.09
2023-08-15T03:14:38.277Z,17.20
2023-08-15T03:17:05.472Z,17.35
2023-08-15T03:19:32.310Z,17.44
2023-08-15T03:21:59.554Z,17.57
2023-08-15T03:24:29.422Z,17.87
2023-08-15T03:26:57.122Z,18.20
2023-08-15T03:29:24.076Z,18.64
2023-08-15T03:31:51.167Z,19.17
2023-08-15T03:34:18.023Z,19.54
2023-08-15T03:36:47.077Z,20.03
2023-08-15T03:39:13.840Z,20.53
2023-08-15T03:41:40.699Z,20.99
2023-08-15T03:44:07.570Z,21.45
2023-08-15T03:46:34.521Z,21.95
2023-08-15T03:49:01.458Z,22.52
2023-08-15T03:51:45.728Z,23.17
2023-08-15T03:54:14.806Z,23.67
2023-08-15T03:56:41.870Z,23.91
2023-08-15T03:59:09.463Z,24.43
2023-08-15T04:01:36.378Z,24.92
2023-08-15T04:04:04.487Z,25.40
2023-08-15T04:06:32.070Z,26.05
2023-08-15T04:08:59.031Z,26.49
2023-08-15T04:11:26.191Z,27.09
2023-08-15T04:13:53.185Z,27.67
2023-08-15T04:16:20.084Z,28.10
2023-08-15T04:18:47.063Z,28.61
2023-08-15T04:21:13.896Z,29.09
2023-08-15T04:23:40.868Z,29.61
2023-08-15T04:26:07.847Z,29.99
2023-08-15T04:28:35.174Z,30.46
2023-08-15T04:31:02.217Z,30.94
2023-08-15T04:33:29.181Z,31.29
2023-08-15T04:35:56.480Z,31.57
2023-08-15T04:38:23.401Z,31.98
2023-08-15T04:40:50.253Z,32.36
2023-08-15T04:43:17.142Z,32.82
2023-08-15T04:45:46.932Z,33.10
2023-08-15T04:48:14.668Z,33.39
2023-08-15T04:50:42.181Z,33.68
2023-08-15T04:53:09.280Z,33.98
2023-08-15T04:55:36.326Z,34.38
2023-08-15T04:58:03.553Z,34.59
2023-08-15T05:00:33.962Z,34.98
2023-08-15T05:03:02.513Z,35.38
2023-08-15T05:05:29.411Z,35.77
2023-08-15T05:07:56.356Z,36.12
2023-08-15T05:10:23.551Z,36.40
2023-08-15T05:12:50.624Z,36.75
2023-08-15T05:15:17.942Z,37.01
2023-08-15T05:17:45.727Z,37.10
2023-08-15T05:20:13.621Z,37.24
2023-08-15T05:22:40.848Z,37.43
2023-08-15T05:25:08.656Z,37.60
2023-08-15T05:27:41.819Z,37.81
2023-08-15T05:30:09.943Z,38.04
2023-08-15T05:32:36.968Z,38.25
2023-08-15T05:35:04.155Z,38.47
2023-08-15T05:37:31.055Z,38.58
2023-08-15T05:39:58.626Z,38.82
2023-08-15T05:42:25.512Z,39.05
2023-08-15T05:44:52.735Z,39.31
2023-08-15T05:47:22.065Z,39.69
2023-08-15T05:49:49.398Z,39.96
2023-08-15T05:52:16.332Z,40.42
2023-08-15T05:54:43.662Z,40.83
2023-08-15T05:57:10.477Z,41.22
2023-08-15T05:59:37.404Z,41.42
2023-08-15T06:02:04.240Z,41.62
2023-08-15T06:04:31.544Z,41.68
2023-08-15T06:06:58.368Z,41.77
2023-08-15T06:09:25.275Z,41.81
2023-08-15T06:11:52.149Z,41.87
2023-08-15T06:14:22.213Z,41.97
2023-08-15T06:16:49.953Z,41.35
2023-08-15T06:19:17.167Z,40.37
2023-08-15T06:21:44.231Z,39.47
2023-08-15T06:24:14.873Z,39.41
2023-08-15T06:26:41.692Z,40.05
2023-08-15T06:29:09.457Z,40.46
2023-08-15T06:31:37.223Z,40.91
2023-08-15T06:34:04.776Z,41.17
2023-08-15T06:36:32.922Z,41.48
2023-08-15T06:39:00.018Z,41.61
2023-08-15T06:41:27.094Z,41.95
2023-08-15T06:43:56.008Z,42.27
2023-08-15T06:46:23.556Z,42.96
2023-08-15T06:48:50.652Z,43.40
2023-08-15T06:51:17.536Z,43.94
2023-08-15T06:53:47.729Z,44.17
2023-08-15T06:56:14.704Z,44.47
2023-08-15T06:58:41.639Z,45.16
2023-08-15T07:01:08.658Z,45.58
2023-08-15T07:03:35.669Z,45.47
2023-08-15T07:06:02.874Z,45.84
2023-08-15T07:08:30.075Z,46.30
2023-08-15T07:10:58.126Z,46.43
2023-08-15T07:13:25.219Z,46.61
2023-08-15T07:15:57.408Z,46.62
2023-08-15T07:18:25.661Z,46.43
2023-08-15T07:20:53.130Z,46.94
2023-08-15T07:23:21.866Z,47.02
2023-08-15T07:25:49.227Z,47.48
2023-08-15T07:28:16.762Z,47.76
2023-08-15T07:30:47.036Z,47.66
2023-08-15T07:33:15.422Z,48.09
2023-08-15T07:35:46.048Z,48.41
2023-08-15T07:38:14.609Z,48.58
2023-08-15T07:40:42.786Z,48.77
2023-08-15T07:43:09.787Z,48.98
2023-08-15T07:45:36.811Z,49.34
2023-08-15T07:48:05.278Z,49.01
2023-08-15T07:50:32.642Z,48.82
2023-08-15T07:52:59.858Z,48.70
2023-08-15T07:55:33.963Z,48.56
2023-08-15T07:58:01.384Z,48.63
2023-08-15T08:00:28.754Z,48.62
2023-08-15T08:02:56.167Z,48.99
2023-08-15T08:05:23.795Z,49.19
2023-08-15T08:07:51.541Z,49.10
2023-08-15T08:10:19.053Z,49.17
2023-08-15T08:12:47.349Z,49.60
2023-08-15T08:15:14.734Z,49.92
2023-08-15T08:17:42.128Z,50.08
2023-08-15T08:20:13.719Z,50.13
2023-08-15T08:22:41.527Z,50.45
2023-08-15T08:25:17.524Z,50.69
2023-08-15T08:27:45.877Z,50.94
2023-08-15T08:30:14.891Z,51.23
2023-08-15T08:32:42.161Z,51.47
2023-08-15T08:35:09.931Z,51.74
2023-08-15T08:37:37.060Z,51.87
2023-08-15T08:40:05.968Z,51.89
2023-08-15T08:42:33.472Z,52.10
2023-08-15T08:45:01.546Z,52.26
2023-08-15T08:47:31.772Z,52.26
2023-08-15T08:50:01.336Z,51.91
2023-08-15T08:52:31.277Z,51.50
2023-08-15T08:54:58.595Z,51.63
2023-08-15T08:57:31.891Z,51.30
2023-08-15T09:00:02.128Z,51.50
2023-08-15T09:02:29.513Z,51.88
2023-08-15T09:04:57.079Z,52.00
2023-08-15T09:07:24.365Z,52.11
2023-08-15T09:09:51.627Z,52.22
2023-08-15T09:12:41.498Z,52.43
2023-08-15T09:15:10.440Z,52.58
2023-08-15T09:17:39.622Z,52.68
2023-08-15T09:20:15.465Z,52.76
2023-08-15T09:22:47.067Z,52.89
2023-08-15T09:25:24.282Z,53.14
2023-08-15T09:27:51.269Z,52.65
2023-08-15T09:30:19.106Z,52.52
2023-08-15T09:32:47.722Z,51.62
2023-08-15T09:35:17.194Z,50.66
2023-08-15T09:37:45.877Z,50.40
2023-08-15T09:40:15.850Z,50.00
2023-08-15T09:42:44.422Z,49.79
2023-08-15T09:45:16.295Z,49.99
2023-08-15T09:47:45.426Z,49.86
2023-08-15T09:50:14.867Z,50.15
2023-08-15T09:52:50.847Z,50.60
2023-08-15T09:55:20.447Z,51.01
2023-08-15T09:57:48.066Z,51.54
2023-08-15T10:00:18.668Z,51.73
2023-08-15T10:02:56.842Z,52.24
2023-08-15T10:05:26.708Z,53.00
2023-08-15T10:07:54.508Z,53.41
2023-08-15T10:10:22.663Z,52.50
2023-08-15T10:12:51.890Z,52.94
2023-08-15T10:15:20.240Z,53.32
2023-08-15T10:17:47.625Z,53.19
2023-08-15T10:20:19.424Z,53.00
2023-08-15T10:22:51.861Z,53.01
2023-08-15T10:25:41.221Z,53.33
2023-08-15T10:28:13.487Z,53.11
2023-08-15T10:30:44.122Z,53.44
2023-08-15T10:33:25.218Z,53.84
2023-08-15T10:35:58.367Z,53.94
2023-08-15T10:38:29.292Z,54.15
2023-08-15T10:41:07.969Z,54.22
2023-08-15T10:43:37.265Z,54.54
2023-08-15T10:46:06.480Z,54.26
2023-08-15T10:49:03.455Z,54.29
2023-08-15T10:51:31.550Z,54.53
2023-08-15T10:54:07.766Z,54.47
2023-08-15T10:56:37.559Z,54.68
2023-08-15T10:59:08.430Z,54.73
2023-08-15T11:01:38.069Z,54.47
2023-08-15T11:04:09.778Z,54.02
2023-08-15T11:06:48.039Z,53.77
2023-08-15T11:09:16.144Z,52.52
2023-08-15T11:11:43.501Z,52.21
2023-08-15T11:14:18.227Z,51.96
2023-08-15T11:16:47.195Z,51.95
2023-08-15T11:19:21.264Z,51.90
2023-08-15T11:21:49.544Z,51.97
2023-08-15T11:24:17.561Z,51.74
2023-08-15T11:26:45.774Z,51.71
2023-08-15T11:29:14.468Z,51.86
2023-08-15T11:31:42.865Z,51.99
2023-08-15T11:34:12.892Z,51.93
2023-08-15T11:36:40.042Z,51.90
2023-08-15T11:39:12.029Z,51.90
2023-08-15T11:41:39.398Z,52.11
2023-08-15T11:44:06.555Z,51.89
2023-08-15T11:46:52.948Z,52.17
2023-08-15T11:49:23.257Z,52.31
2023-08-15T11:51:51.036Z,52.52
2023-08-15T11:54:18.440Z,52.75
2023-08-15T11:56:54.409Z,52.81
2023-08-15T11:59:23.740Z,52.68
2023-08-15T12:01:51.176Z,52.42
2023-08-15T12:04:20.538Z,52.36
2023-08-15T12:06:47.844Z,52.41
2023-08-15T12:09:14.979Z,52.50
2023-08-15T12:11:42.840Z,52.41
2023-08-15T12:14:20.539Z,52.49
2023-08-15T12:16:47.610Z,52.55
2023-08-15T12:19:17.097Z,52.60
2023-08-15T12:21:45.309Z,52.61
2023-08-15T12:24:12.469Z,52.52
2023-08-15T12:26:39.665Z,52.38
2023-08-15T12:29:06.762Z,52.39
2023-08-15T12:31:38.014Z,52.42
2023-08-15T12:34:05.152Z,52.13
2023-08-15T12:36:32.247Z,51.90
2023-08-15T12:38:59.185Z,51.98
2023-08-15T12:41:26.348Z,51.91
2023-08-15T12:43:53.757Z,52.05
2023-08-15T12:46:21.125Z,51.90
2023-08-15T12:48:48.190Z,51.80
2023-08-15T12:51:15.863Z,51.69
2023-08-15T12:53:43.284Z,51.21
2023-08-15T12:56:11.050Z,51.08
2023-08-15T12:58:38.645Z,51.10
2023-08-15T13:01:05.749Z,51.05
2023-08-15T13:03:32.788Z,51.08
2023-08-15T13:06:00.404Z,51.00
2023-08-15T13:08:27.532Z,50.80
2023-08-15T13:10:55.401Z,50.87
2023-08-15T13:13:22.420Z,51.04
2023-08-15T13:15:51.631Z,51.01
2023-08-15T13:18:18.698Z,50.91
2023-08-15T13:20:45.940Z,50.76
2023-08-15T13:23:12.856Z,50.23
2023-08-15T13:25:39.944Z,50.25
2023-08-15T13:28:07.172Z,50.20
2023-08-15T13:30:34.533Z,50.16
2023-08-15T13:33:02.197Z,49.90
2023-08-15T13:35:29.173Z,49.80
2023-08-15T13:37:56.112Z,49.82
2023-08-15T13:40:23.153Z,49.75
2023-08-15T13:42:50.098Z,49.39
2023-08-15T13:45:18.562Z,49.14
2023-08-15T13:47:45.586Z,48.70
2023-08-15T13:50:13.031Z,48.41
2023-08-15T13:52:40.070Z,48.01
2023-08-15T13:55:07.705Z,47.70
2023-08-15T13:57:34.604Z,47.43
2023-08-15T14:00:02.582Z,47.17
2023-08-15T14:02:35.211Z,46.97
2023-08-15T14:05:04.213Z,46.84
2023-08-15T14:07:31.235Z,46.76
2023-08-15T14:09:58.299Z,46.79
2023-08-15T14:12:27.355Z,46.71
2023-08-15T14:14:54.333Z,46.45
2023-08-15T14:17:21.247Z,46.10
2023-08-15T14:19:48.271Z,45.91
2023-08-15T14:22:16.271Z,45.77
2023-08-15T14:24:47.990Z,45.52
2023-08-15T14:27:15.277Z,45.22
2023-08-15T14:29:42.825Z,44.96
2023-08-15T14:32:10.161Z,44.75
2023-08-15T14:34:37.249Z,44.44
2023-08-15T14:37:04.189Z,44.15
2023-08-15T14:39:31.132Z,43.90
2023-08-15T14:41:58.018Z,43.67
2023-08-15T14:44:25.003Z,43.41
2023-08-15T14:46:52.169Z,43.17
2023-08-15T14:49:19.227Z,42.90
2023-08-15T14:51:46.571Z,42.68
2023-08-15T14:54:13.899Z,42.26
2023-08-15T14:56:41.149Z,41.86
2023-08-15T14:59:08.639Z,41.53
2023-08-15T15:01:36.210Z,41.14
2023-08-15T15:04:03.316Z,40.73
2023-08-15T15:06:30.387Z,40.36
2023-08-15T15:08:57.469Z,40.02
2023-08-15T15:11:24.685Z,39.62
2023-08-15T15:13:51.681Z,39.15
2023-08-15T15:16:19.122Z,38.68
2023-08-15T15:18:46.107Z,38.17
2023-08-15T15:21:13.009Z,37.65
2023-08-15T15:23:40.137Z,37.16
2023-08-15T15:26:07.175Z,36.71
2023-08-15T15:28:34.739Z,36.33
2023-08-15T15:31:02.226Z,35.97
2023-08-15T15:33:30.668Z,35.66
2023-08-15T15:35:57.760Z,35.37
2023-08-15T15:38:24.760Z,35.12
2023-08-15T15:40:51.873Z,34.86
2023-08-15T15:43:19.011Z,34.69
2023-08-15T15:45:46.432Z,34.48
2023-08-15T15:48:13.486Z,34.26
2023-08-15T15:50:40.723Z,34.05
2023-08-15T15:53:08.075Z,33.90
2023-08-15T15:55:35.414Z,33.71
2023-08-15T15:58:02.865Z,33.54
2023-08-15T16:00:30.058Z,33.37
2023-08-15T16:02:57.220Z,33.22
2023-08-15T16:05:24.702Z,33.10
2023-08-15T16:07:52.052Z,32.98
2023-08-15T16:10:19.446Z,32.90
2023-08-15T16:12:46.536Z,32.76
2023-08-15T16:15:13.834Z,32.64
2023-08-15T16:17:43.846Z,32.51
2023-08-15T16:20:11.911Z,32.40
2023-08-15T16:22:39.433Z,32.30
2023-08-15T16:25:06.920Z,32.12
2023-08-15T16:27:34.011Z,31.99
2023-08-15T16:30:14.917Z,31.83
2023-08-15T16:32:42.764Z,31.67
2023-08-15T16:35:09.905Z,31.53
2023-08-15T16:37:37.029Z,31.38
2023-08-15T16:40:04.193Z,31.28
2023-08-15T16:42:31.175Z,31.16
2023-08-15T16:44:58.148Z,31.05
2023-08-15T16:47:25.301Z,30.91
2023-08-15T16:49:52.537Z,30.79
2023-08-15T16:52:20.044Z,30.64
2023-08-15T16:54:47.879Z,30.51
2023-08-15T16:57:15.044Z,30.38
2023-08-15T16:59:43.273Z,30.22
2023-08-15T17:02:10.697Z,30.05
2023-08-15T17:04:37.777Z,29.87
2023-08-15T17:07:04.842Z,29.70
2023-08-15T17:09:31.876Z,29.52
2023-08-15T17:11:58.773Z,29.32
2023-08-15T17:14:25.716Z,29.12
2023-08-15T17:16:52.654Z,28.88
2023-08-15T17:19:20.397Z,28.64
2023-08-15T17:21:47.428Z,28.40
2023-08-15T17:24:14.614Z,28.18
2023-08-15T17:26:41.701Z,27.96
2023-08-15T17:29:08.631Z,27.76
2023-08-15T17:31:35.473Z,27.60
2023-08-15T17:34:02.400Z,27.42
2023-08-15T17:36:30.289Z,27.23
2023-08-15T17:38:57.179Z,27.08
2023-08-15T17:41:24.186Z,26.95
2023-08-15T17:43:51.129Z,26.82
2023-08-15T17:46:18.913Z,26.58
2023-08-15T17:48:46.105Z,26.37
2023-08-15T17:51:13.030Z,26.22
2023-08-15T17:53:40.314Z,26.10
2023-08-15T17:56:07.294Z,26.01
2023-08-15T17:58:51.519Z,25.89
2023-08-15T18:01:19.229Z,25.74
2023-08-15T18:03:47.511Z,25.59
2023-08-15T18:06:15.688Z,25.44
2023-08-15T18:08:42.757Z,25.30
2023-08-15T18:11:09.839Z,25.19
2023-08-15T18:13:37.820Z,25.07
2023-08-15T18:16:05.239Z,25.00
2023-08-15T18:18:32.172Z,24.95
2023-08-15T18:20:59.338Z,24.90
2023-08-15T18:23:26.186Z,24.85
2023-08-15T18:25:53.293Z,24.83
2023-08-15T18:28:20.291Z,24.80
2023-08-15T18:30:47.306Z,24.77
2023-08-15T18:33:15.410Z,24.73
2023-08-15T18:35:43.157Z,24.66
2023-08-15T18:38:10.148Z,24.60
2023-08-15T18:40:39.365Z,24.55
2023-08-15T18:43:09.148Z,24.51
2023-08-15T18:45:43.519Z,24.46
2023-08-15T18:48:11.928Z,24.40
2023-08-15T18:50:43.794Z,24.29
2023-08-15T18:53:10.837Z,24.10
2023-08-15T18:55:37.950Z,24.04
2023-08-15T18:58:05.517Z,23.92
2023-08-15T19:00:32.413Z,23.76
2023-08-15T19:02:59.547Z,23.69
2023-08-15T19:05:26.894Z,23.59
2023-08-15T19:07:54.218Z,23.49
2023-08-15T19:10:22.202Z,23.37
2023-08-15T19:12:49.221Z,23.23
2023-08-15T19:15:23.117Z,23.14
2023-08-15T19:17:51.132Z,23.05
2023-08-15T19:20:28.613Z,22.98
2023-08-15T19:22:55.700Z,22.90
2023-08-15T19:25:24.687Z,22.84
2023-08-15T19:27:53.450Z,22.74
2023-08-15T19:30:21.393Z,22.66
2023-08-15T19:32:48.802Z,22.62
2023-08-15T19:35:16.967Z,22.57
2023-08-15T19:37:44.488Z,22.49
2023-08-15T19:40:11.747Z,22.43
2023-08-15T19:42:44.325Z,22.36
2023-08-15T19:45:12.582Z,22.29
2023-08-15T19:47:40.273Z,22.18
2023-08-15T19:50:08.799Z,22.13
2023-08-15T19:52:36.301Z,22.09
2023-08-15T19:55:07.005Z,22.03
2023-08-15T19:57:34.140Z,21.96
2023-08-15T20:00:01.281Z,21.89
2023-08-15T20:02:28.331Z,21.85
2023-08-15T20:04:56.625Z,21.78
2023-08-15T20:07:23.772Z,21.74
2023-08-15T20:10:03.959Z,21.72
2023-08-15T20:12:35.710Z,21.66
2023-08-15T20:15:02.848Z,21.62
2023-08-15T20:17:29.870Z,21.60
2023-08-15T20:19:56.904Z,21.58
2023-08-15T20:22:24.067Z,21.53
2023-08-15T20:24:51.321Z,21.51
2023-08-15T20:27:18.364Z,21.49
2023-08-15T20:29:45.693Z,21.47
2023-08-15T20:32:12.891Z,21.40
2023-08-15T20:34:40.369Z,21.38
2023-08-15T20:37:07.854Z,21.43
2023-08-15T20:39:35.152Z,21.35
2023-08-15T20:42:02.102Z,21.31
2023-08-15T20:44:29.082Z,21.27
2023-08-15T20:46:56.418Z,21.19
2023-08-15T20:49:23.494Z,21.15
2023-08-15T20:51:50.650Z,21.10
2023-08-15T20:54:17.711Z,21.08
2023-08-15T20:56:44.659Z,21.02
2023-08-15T20:59:11.677Z,20.98
2023-08-15T21:01:38.701Z,20.90
2023-08-15T21:04:06.267Z,20.98
2023-08-15T21:06:33.342Z,21.02
2023-08-15T21:09:00.383Z,21.02
2023-08-15T21:11:27.453Z,21.01
2023-08-15T21:13:56.669Z,20.98
2023-08-15T21:16:23.885Z,20.90
2023-08-15T21:18:51.071Z,20.83
2023-08-15T21:21:18.070Z,20.76
2023-08-15T21:23:45.083Z,20.70
2023-08-15T21:26:11.990Z,20.59
2023-08-15T21:28:38.964Z,20.55
2023-08-15T21:31:06.360Z,20.50
2023-08-15T21:33:33.750Z,20.38
2023-08-15T21:36:01.426Z,20.34
2023-08-15T21:38:28.545Z,20.29
2023-08-15T21:40:55.605Z,20.28
2023-08-15T21:43:22.619Z,20.23
2023-08-15T21:45:49.622Z,20.24
2023-08-15T21:48:16.656Z,20.22
2023-08-15T21:50:43.719Z,20.21
2023-08-15T21:53:10.582Z,20.17
2023-08-15T21:55:37.554Z,20.16
2023-08-15T21:58:04.607Z,20.14
2023-08-15T22:00:31.714Z,20.09
2023-08-15T22:02:58.978Z,20.03
2023-08-15T22:05:26.880Z,20.02
2023-08-15T22:07:54.259Z,20.02
2023-08-15T22:10:23.100Z,20.01
2023-08-15T22:12:51.172Z,19.99
2023-08-15T22:15:19.363Z,19.98
2023-08-15T22:17:52.185Z,19.96
2023-08-15T22:20:21.682Z,19.95
2023-08-15T22:22:48.846Z,19.90
2023-08-15T22:25:18.580Z,19.90
2023-08-15T22:27:46.151Z,19.87
2023-08-15T22:30:13.867Z,19.82
2023-08-15T22:32:40.900Z,19.76
2023-08-15T22:35:08.353Z,19.70
2023-08-15T22:37:35.401Z,19.65
2023-08-15T22:40:04.902Z,19.64
2023-08-15T22:42:32.403Z,19.63
2023-08-15T22:44:59.325Z,19.56
2023-08-15T22:47:26.613Z,19.55
2023-08-15T22:49:53.483Z,19.53
2023-08-15T22:52:20.472Z,19.54
2023-08-15T22:54:47.375Z,19.47
2023-08-15T22:57:14.313Z,19.50
2023-08-15T22:59:41.297Z,19.49
2023-08-15T23:02:08.493Z,19.50
2023-08-15T23:04:35.473Z,19.51
2023-08-15T23:07:02.560Z,19.49
2023-08-15T23:09:29.545Z,19.50
2023-08-15T23:11:56.543Z,19.45
2023-08-15T23:14:23.536Z,19.43
2023-08-15T23:16:50.567Z,19.44
2023-08-15T23:19:17.717Z,19.42
2023-08-15T23:21:44.752Z,19.38
2023-08-15T23:24:11.770Z,19.32
2023-08-15T23:26:38.913Z,19.33
2023-08-15T23:29:05.943Z,19.34
2023-08-15T23:31:34.620Z,19.29
2023-08-15T23:34:05.675Z,19.28
2023-08-15T23:36:33.692Z,19.25
2023-08-15T23:39:00.852Z,19.22
2023-08-15T23:41:28.764Z,19.22
2023-08-15T23:43:55.764Z,19.20
2023-08-15T23:46:24.446Z,19.20
2023-08-15T23:48:52.180Z,19.22
2023-08-15T23:51:19.385Z,19.20
2023-08-15T23:53:48.637Z,19.16
2023-08-15T23:56:16.329Z,19.13
2023-08-15T23:58:43.517Z,19.15
